Time;durP1;ratioP1;P1;durP2;ratioP2;P2;SDS_P1;SDS_P2;PMS_P1;PMS_P2;Temp;Humidity;BMP_temperature;BMP_pressure;BME280_temperature;BME280_humidity;BME280_pressure;Samples;Min_cycle;Max_cycle;Signal;HPM_P1;HPM_P2
2023/12/01 00:00:54;;;;;;;12.60;4.95;;;-1.80;99.90;;;;;;6279758;28;20076;-89
2023/12/01 00:03:56;;;;;;;13.63;5.45;;;-1.70;99.90;;;;;;6316325;28;20045;-87
2023/12/01 00:06:58;;;;;;;13.85;5.30;;;-1.70;99.90;;;;;;6296513;28;20053;-87
2023/12/01 00:09:59;;;;;;;14.35;6.10;;;-1.70;99.90;;;;;;6317266;28;20053;-88
2023/12/01 00:13:01;;;;;;;12.30;5.40;;;-1.70;99.90;;;;;;6300006;28;20060;-88
2023/12/01 00:16:03;;;;;;;12.10;5.45;;;-1.70;99.90;;;;;;6319904;28;20060;-87
2023/12/01 00:19:04;;;;;;;15.50;6.50;;;-1.80;99.90;;;;;;6292185;28;20108;-87
2023/12/01 00:22:06;;;;;;;13.93;6.07;;;-1.80;99.90;;;;;;6317923;28;20127;-85
2023/12/01 00:25:08;;;;;;;16.02;5.20;;;-1.70;99.90;;;;;;6285262;28;20067;-87
2023/12/01 00:28:10;;;;;;;16.10;5.95;;;-1.70;99.90;;;;;;6304387;28;20049;-88
2023/12/01 00:31:12;;;;;;;20.23;6.95;;;-1.70;99.90;;;;;;6295035;28;20060;-87
2023/12/01 00:34:13;;;;;;;14.80;6.32;;;-1.70;99.90;;;;;;6315151;28;20053;-87
2023/12/01 00:37:16;;;;;;;13.45;6.15;;;-1.70;99.90;;;;;;6289859;28;20488;-87
2023/12/01 00:40:18;;;;;;;17.55;6.65;;;-1.70;99.90;;;;;;6310722;28;20109;-86
2023/12/01 00:43:20;;;;;;;14.73;6.15;;;-1.70;99.90;;;;;;6301490;28;20052;-89
2023/12/01 00:46:22;;;;;;;16.65;6.45;;;-1.70;99.90;;;;;;6295466;28;20067;-88
2023/12/01 00:49:23;;;;;;;14.95;5.95;;;-1.80;99.90;;;;;;6316269;28;20052;-88
2023/12/01 00:52:25;;;;;;;15.23;6.22;;;-1.80;99.90;;;;;;6294653;28;20049;-89
2023/12/01 00:55:26;;;;;;;10.27;5.22;;;-1.80;99.90;;;;;;6316141;28;20053;-89
2023/12/01 00:58:28;;;;;;;12.85;6.18;;;-1.90;99.90;;;;;;6292633;28;20477;-89
2023/12/01 01:01:30;;;;;;;15.18;6.10;;;-1.90;99.90;;;;;;6308996;28;20048;-88
2023/12/01 01:04:32;;;;;;;15.93;6.00;;;-1.90;99.90;;;;;;6292928;28;20494;-90
2023/12/01 01:07:34;;;;;;;11.98;5.85;;;-2.00;99.90;;;;;;6312143;28;20056;-89
2023/12/01 01:10:35;;;;;;;12.50;6.15;;;-2.00;99.90;;;;;;6303960;28;20053;-88
2023/12/01 01:13:37;;;;;;;15.05;6.43;;;-2.00;99.90;;;;;;6297290;28;20500;-88
2023/12/01 01:16:39;;;;;;;12.13;5.72;;;-2.00;99.90;;;;;;6286038;28;20492;-88
2023/12/01 01:19:41;;;;;;;13.43;5.93;;;-2.00;99.90;;;;;;6296850;28;20144;-90
2023/12/01 01:22:43;;;;;;;14.52;5.97;;;-2.00;99.90;;;;;;6310035;28;20053;-90
2023/12/01 01:25:45;;;;;;;12.93;5.90;;;-2.10;99.90;;;;;;6287176;28;20048;-88
2023/12/01 01:28:46;;;;;;;14.00;6.05;;;-2.10;99.90;;;;;;6291354;28;20049;-88
2023/12/01 01:31:48;;;;;;;14.43;6.68;;;-2.10;99.90;;;;;;6282215;28;20065;-88
2023/12/01 01:34:50;;;;;;;15.40;6.75;;;-2.10;99.90;;;;;;6301902;28;20055;-86
2023/12/01 01:37:51;;;;;;;16.83;6.72;;;-2.10;99.90;;;;;;6275286;28;20056;-86
2023/12/01 01:40:53;;;;;;;15.98;6.78;;;-2.10;99.90;;;;;;6298291;28;20427;-87
2023/12/01 01:43:55;;;;;;;20.27;6.45;;;-2.10;99.90;;;;;;6284467;28;20088;-87
2023/12/01 01:46:56;;;;;;;14.45;6.70;;;-2.10;99.90;;;;;;6272939;28;20053;-87
2023/12/01 01:49:58;;;;;;;14.98;5.90;;;-2.20;99.90;;;;;;6278432;28;20049;-87
2023/12/01 01:53:00;;;;;;;17.52;6.30;;;-2.20;99.90;;;;;;6298057;28;20048;-86
2023/12/01 01:56:02;;;;;;;17.08;6.63;;;-2.10;99.90;;;;;;6278315;28;20049;-87
2023/12/01 01:59:04;;;;;;;17.98;7.13;;;-2.20;99.90;;;;;;6285199;28;20500;-87
2023/12/01 02:02:05;;;;;;;19.50;7.20;;;-2.10;99.90;;;;;;6302412;28;20061;-87
2023/12/01 02:05:13;;;;;;;19.80;7.18;;;-2.10;99.90;;;;;;6276839;28;20060;-87
2023/12/01 02:08:15;;;;;;;17.83;7.43;;;-2.10;99.90;;;;;;6256753;28;20389;-86
2023/12/01 02:11:17;;;;;;;16.67;7.18;;;-2.00;99.90;;;;;;6299783;28;20059;-86
2023/12/01 02:14:18;;;;;;;20.60;7.18;;;-2.10;99.90;;;;;;6274560;28;20106;-87
2023/12/01 02:17:20;;;;;;;17.17;7.50;;;-2.10;99.90;;;;;;6301189;28;20700;-88
2023/12/01 02:20:22;;;;;;;16.27;7.75;;;-2.00;99.90;;;;;;6277328;28;20452;-87
2023/12/01 02:23:23;;;;;;;18.73;7.90;;;-2.00;99.90;;;;;;6293706;28;20049;-87
2023/12/01 02:26:25;;;;;;;16.23;7.47;;;-2.10;99.90;;;;;;6301277;28;20056;-87
2023/12/01 02:29:26;;;;;;;18.75;6.90;;;-2.10;99.90;;;;;;6280759;28;20416;-87
2023/12/01 02:32:28;;;;;;;15.05;6.75;;;-2.20;99.90;;;;;;6301638;28;20161;-87
2023/12/01 02:35:30;;;;;;;17.60;7.10;;;-2.20;99.90;;;;;;6276096;28;20067;-87
2023/12/01 02:38:31;;;;;;;16.70;7.47;;;-2.30;99.90;;;;;;6293811;28;20402;-87
2023/12/01 02:41:33;;;;;;;18.38;7.57;;;-2.20;99.90;;;;;;6299697;28;20048;-87
2023/12/01 02:44:35;;;;;;;16.23;6.43;;;-2.20;99.90;;;;;;6271268;28;20080;-88
2023/12/01 02:47:36;;;;;;;17.55;7.10;;;-2.20;99.90;;;;;;6299452;28;20492;-88
2023/12/01 02:50:38;;;;;;;15.45;7.35;;;-2.20;99.90;;;;;;6274823;28;20473;-87
2023/12/01 02:53:40;;;;;;;15.75;6.65;;;-2.20;99.90;;;;;;6295708;28;20052;-88
2023/12/01 02:56:41;;;;;;;15.75;6.93;;;-2.20;99.90;;;;;;6274438;28;20060;-88
2023/12/01 02:59:43;;;;;;;16.10;7.30;;;-2.30;99.90;;;;;;6295496;28;20044;-88
2023/12/01 03:02:45;;;;;;;21.15;7.47;;;-2.30;99.90;;;;;;6300673;28;20099;-89
2023/12/01 03:05:46;;;;;;;17.70;7.20;;;-2.30;99.90;;;;;;6277648;28;20047;-89
2023/12/01 03:08:48;;;;;;;16.75;7.30;;;-2.40;99.90;;;;;;6299197;28;20073;-88
2023/12/01 03:11:50;;;;;;;18.50;7.03;;;-2.40;99.90;;;;;;6277194;28;20048;-88
2023/12/01 03:14:52;;;;;;;16.92;7.93;;;-2.40;99.90;;;;;;6293511;28;20056;-88
2023/12/01 03:18:09;;;;;;;17.27;6.93;;;-2.40;99.90;;;;;;6263931;28;20050;-89
2023/12/01 03:21:12;;;;;;;22.15;8.77;;;-2.40;99.90;;;;;;6298356;28;20048;-88
2023/12/01 03:24:16;;;;;;;22.65;9.15;;;-2.40;99.90;;;;;;6272031;28;20124;-89
2023/12/01 03:27:18;;;;;;;18.00;8.00;;;-2.30;99.90;;;;;;6295518;28;20049;-81
2023/12/01 03:30:19;;;;;;;19.02;8.68;;;-2.20;99.90;;;;;;6273520;28;20057;-88
2023/12/01 03:33:21;;;;;;;19.80;8.57;;;-2.30;99.90;;;;;;6250631;28;20136;-88
2023/12/01 03:36:23;;;;;;;19.52;8.95;;;-2.20;99.90;;;;;;6291551;28;20064;-88
2023/12/01 03:39:25;;;;;;;17.65;8.15;;;-2.30;99.90;;;;;;6294514;28;20049;-87
2023/12/01 03:42:27;;;;;;;20.23;8.80;;;-2.30;99.90;;;;;;6272757;28;20049;-88
2023/12/01 03:45:29;;;;;;;17.10;8.02;;;-2.40;99.90;;;;;;6293509;28;20099;-88
2023/12/01 03:48:30;;;;;;;18.02;8.38;;;-2.30;99.90;;;;;;6269210;28;20057;-88
2023/12/01 03:51:32;;;;;;;20.15;9.30;;;-2.30;99.90;;;;;;6296955;28;20060;-88
2023/12/01 03:54:33;;;;;;;19.67;9.38;;;-2.30;99.90;;;;;;6272891;28;20057;-87
2023/12/01 03:57:35;;;;;;;23.67;9.85;;;-2.20;99.90;;;;;;6293175;28;20444;-88
2023/12/01 04:00:37;;;;;;;19.17;8.82;;;-2.10;99.90;;;;;;6270771;28;20056;-88
2023/12/01 04:03:38;;;;;;;23.40;10.57;;;-2.10;99.90;;;;;;6264499;28;20060;-88
2023/12/01 04:06:42;;;;;;;20.10;9.40;;;-2.10;99.90;;;;;;6295862;28;20060;-87
2023/12/01 04:09:44;;;;;;;21.60;9.02;;;-2.20;99.90;;;;;;6271904;28;20048;-87
2023/12/01 04:12:46;;;;;;;18.77;8.95;;;-2.20;99.90;;;;;;6275183;28;20126;-79
2023/12/01 04:15:49;;;;;;;21.17;9.05;;;-2.30;99.90;;;;;;6281958;28;20055;-87
2023/12/01 04:18:51;;;;;;;19.20;9.10;;;-2.40;99.90;;;;;;6248891;28;20049;-87
2023/12/01 04:21:52;;;;;;;21.75;8.70;;;-2.40;99.90;;;;;;6295183;28;20048;-86
2023/12/01 04:24:55;;;;;;;23.45;9.40;;;-2.40;99.90;;;;;;6270075;28;20057;-87
2023/12/01 04:27:56;;;;;;;24.77;9.05;;;-2.50;99.90;;;;;;6287671;28;20083;-89
2023/12/01 04:30:58;;;;;;;21.40;8.63;;;-2.50;99.90;;;;;;6274419;28;20431;-88
2023/12/01 04:34:08;;;;;;;18.02;8.38;;;-2.60;99.90;;;;;;6255068;28;20056;-87
2023/12/01 04:37:09;;;;;;;19.27;8.48;;;-2.60;99.90;;;;;;6283815;28;20721;-86
2023/12/01 04:40:17;;;;;;;21.67;9.75;;;-2.60;99.90;;;;;;6301043;28;20048;-87
2023/12/01 04:43:19;;;;;;;18.58;8.13;;;-2.70;99.90;;;;;;6266431;28;20166;-86
2023/12/01 04:46:21;;;;;;;17.88;8.02;;;-2.70;99.90;;;;;;6276243;28;20501;-86
2023/12/01 04:49:22;;;;;;;20.92;9.10;;;-2.70;99.90;;;;;;6299838;28;20396;-87
2023/12/01 04:52:24;;;;;;;17.80;7.93;;;-2.70;99.90;;;;;;6277241;28;20060;-87
2023/12/01 04:55:26;;;;;;;24.92;10.43;;;-2.60;99.90;;;;;;6301149;28;20507;-88
2023/12/01 04:58:27;;;;;;;23.70;9.88;;;-2.60;99.90;;;;;;6281775;28;20492;-88
2023/12/01 05:01:29;;;;;;;19.90;8.60;;;-2.50;99.90;;;;;;6273905;28;20515;-85
2023/12/01 05:04:31;;;;;;;20.17;8.77;;;-2.50;99.90;;;;;;6278314;28;20573;-87
2023/12/01 05:07:32;;;;;;;21.13;9.82;;;-2.50;99.90;;;;;;6297175;28;20052;-87
2023/12/01 05:10:34;;;;;;;22.13;8.93;;;-2.50;99.90;;;;;;6300535;28;20056;-86
2023/12/01 05:13:36;;;;;;;20.40;9.13;;;-2.50;99.90;;;;;;6282719;28;20040;-86
2023/12/01 05:16:37;;;;;;;16.48;7.65;;;-2.50;99.90;;;;;;6276367;28;20123;-88
2023/12/01 05:19:39;;;;;;;19.33;8.20;;;-2.50;99.90;;;;;;6300670;28;20423;-88
2023/12/01 05:22:41;;;;;;;22.83;9.20;;;-2.50;99.90;;;;;;6276993;28;20068;-86
2023/12/01 05:25:42;;;;;;;18.95;8.52;;;-2.30;99.90;;;;;;6295079;28;20056;-87
2023/12/01 05:28:45;;;;;;;22.10;9.00;;;-2.20;99.90;;;;;;6284198;28;20503;-87
2023/12/01 05:31:46;;;;;;;20.60;9.13;;;-2.10;99.90;;;;;;6298501;28;20048;-88
2023/12/01 05:34:48;;;;;;;20.58;8.88;;;-2.00;99.90;;;;;;6275471;28;20187;-88
2023/12/01 05:37:50;;;;;;;18.63;9.35;;;-1.90;99.90;;;;;;6294797;28;20455;-87
2023/12/01 05:40:52;;;;;;;18.98;9.05;;;-1.80;99.90;;;;;;6293226;28;20048;-88
2023/12/01 05:43:53;;;;;;;23.08;9.57;;;-1.70;99.90;;;;;;6283775;28;20045;-88
2023/12/01 05:46:57;;;;;;;18.05;8.73;;;-1.60;99.90;;;;;;6287444;28;20045;-88
2023/12/01 05:49:59;;;;;;;20.10;9.32;;;-1.50;99.90;;;;;;6277029;28;20049;-88
2023/12/01 05:53:01;;;;;;;20.35;9.50;;;-1.40;99.90;;;;;;6300409;28;20499;-89
2023/12/01 05:56:03;;;;;;;21.30;9.35;;;-1.30;99.90;;;;;;6275404;28;20053;-88
2023/12/01 05:59:05;;;;;;;20.55;8.82;;;-1.20;99.90;;;;;;6279897;28;20080;-87
2023/12/01 06:02:11;;;;;;;18.90;9.05;;;-1.10;99.90;;;;;;6298039;28;20052;-87
2023/12/01 06:05:12;;;;;;;22.58;9.95;;;-1.10;99.90;;;;;;6249621;28;20065;-88
2023/12/01 06:08:14;;;;;;;21.40;9.77;;;-1.00;99.90;;;;;;6296181;28;20056;-89
2023/12/01 06:11:16;;;;;;;19.70;8.80;;;-1.00;99.90;;;;;;6274913;28;20052;-89
2023/12/01 06:14:17;;;;;;;22.08;10.55;;;-0.90;99.90;;;;;;6295004;28;20503;-88
2023/12/01 06:17:19;;;;;;;20.55;9.82;;;-0.90;99.90;;;;;;6275316;28;20175;-87
2023/12/01 06:20:21;;;;;;;19.10;8.57;;;-0.80;99.90;;;;;;6298824;28;20462;-88
2023/12/01 06:23:22;;;;;;;23.52;10.45;;;-0.70;99.90;;;;;;6283393;28;20059;-88
2023/12/01 06:26:24;;;;;;;23.75;11.25;;;-0.70;99.90;;;;;;6288863;28;20075;-88
2023/12/01 06:29:26;;;;;;;25.50;12.15;;;-0.70;99.90;;;;;;6312434;28;20064;-88
2023/12/01 06:32:28;;;;;;;26.55;12.98;;;-0.60;99.90;;;;;;6308867;28;20480;-88
2023/12/01 06:35:29;;;;;;;26.10;11.98;;;-0.50;99.90;;;;;;6276167;28;20619;-87
2023/12/01 06:38:31;;;;;;;28.90;13.25;;;-0.40;99.90;;;;;;6299633;28;20072;-88
2023/12/01 06:41:33;;;;;;;25.52;12.32;;;-0.30;99.90;;;;;;6274559;28;20053;-88
2023/12/01 06:44:35;;;;;;;31.95;12.95;;;-0.20;99.90;;;;;;6275430;28;20064;-88
2023/12/01 06:47:37;;;;;;;27.10;12.68;;;-0.20;99.90;;;;;;6298877;28;20049;-88
2023/12/01 06:50:38;;;;;;;28.10;12.20;;;-0.10;99.90;;;;;;6273830;28;20053;-88
2023/12/01 06:53:40;;;;;;;28.83;13.00;;;-0.10;99.90;;;;;;6298310;28;20060;-89
2023/12/01 06:56:42;;;;;;;27.52;12.50;;;0.00;99.90;;;;;;6281749;28;20048;-88
2023/12/01 06:59:43;;;;;;;29.70;12.75;;;0.00;99.90;;;;;;6308400;28;20467;-87
2023/12/01 07:02:45;;;;;;;33.17;14.75;;;0.10;99.90;;;;;;6286906;28;20059;-88
2023/12/01 07:05:51;;;;;;;32.67;14.30;;;0.10;99.90;;;;;;6302675;28;20059;-88
2023/12/01 07:08:53;;;;;;;35.90;14.32;;;0.10;99.90;;;;;;6309880;28;20116;-88
2023/12/01 07:11:55;;;;;;;32.72;15.15;;;0.10;99.90;;;;;;6277660;28;20045;-88
2023/12/01 07:14:57;;;;;;;36.25;15.55;;;0.10;99.90;;;;;;6294244;28;20415;-88
2023/12/01 07:17:58;;;;;;;33.95;14.05;;;0.20;99.90;;;;;;6273415;28;20104;-88
2023/12/01 07:21:05;;;;;;;37.08;14.60;;;0.20;99.90;;;;;;6297326;28;20045;-90
2023/12/01 07:24:08;;;;;;;34.90;15.00;;;0.30;99.90;;;;;;6277765;28;20056;-87
2023/12/01 07:27:09;;;;;;;33.50;14.38;;;0.30;99.90;;;;;;6273308;28;20061;-86
2023/12/01 07:30:11;;;;;;;38.22;14.93;;;0.30;99.90;;;;;;6297316;28;20055;-88
2023/12/01 07:33:13;;;;;;;33.67;13.88;;;0.40;99.90;;;;;;6275969;28;20053;-88
2023/12/01 07:36:15;;;;;;;31.38;13.68;;;0.40;99.90;;;;;;6298290;28;20102;-88
2023/12/01 07:39:23;;;;;;;32.67;14.23;;;0.40;99.90;;;;;;6249636;28;20346;-88
2023/12/01 07:42:24;;;;;;;33.65;14.07;;;0.40;99.90;;;;;;6278143;28;20056;-88
2023/12/01 07:45:28;;;;;;;29.27;13.40;;;0.40;99.90;;;;;;6274394;28;20048;-89
2023/12/01 07:48:30;;;;;;;30.05;13.23;;;0.50;99.90;;;;;;6248318;28;20053;-88
2023/12/01 07:51:32;;;;;;;29.65;13.75;;;0.50;99.90;;;;;;6277805;28;20128;-91
2023/12/01 07:54:33;;;;;;;30.02;13.40;;;0.50;99.90;;;;;;6301283;28;20056;-92
2023/12/01 07:57:37;;;;;;;28.15;12.75;;;0.50;99.90;;;;;;6278172;28;20871;-91
2023/12/01 08:00:40;;;;;;;29.10;13.02;;;0.60;99.90;;;;;;6299545;28;20060;-92
2023/12/01 08:03:42;;;;;;;26.45;12.02;;;0.60;99.90;;;;;;6252079;28;20172;-91
2023/12/01 08:06:45;;;;;;;28.52;12.80;;;0.70;99.90;;;;;;6302498;28;20045;-91
2023/12/01 08:09:46;;;;;;;27.30;11.82;;;0.70;99.90;;;;;;6281593;28;20049;-90
2023/12/01 08:12:50;;;;;;;36.22;13.93;;;0.70;99.90;;;;;;6296380;28;20128;-87
2023/12/01 08:15:53;;;;;;;28.90;13.27;;;0.80;99.90;;;;;;6278423;28;20134;-89
2023/12/01 08:18:54;;;;;;;29.13;12.57;;;0.80;99.90;;;;;;6303760;28;20052;-91
2023/12/01 08:21:56;;;;;;;28.40;12.82;;;0.80;99.90;;;;;;6277556;28;20048;-85
2023/12/01 08:24:58;;;;;;;28.95;12.15;;;0.80;99.90;;;;;;6276256;28;20110;-87
2023/12/01 08:27:59;;;;;;;30.33;12.73;;;0.80;99.90;;;;;;6292383;28;20049;-83
2023/12/01 08:31:02;;;;;;;29.02;12.55;;;0.90;99.90;;;;;;6274764;28;20833;-88
2023/12/01 08:34:06;;;;;;;29.45;12.82;;;0.80;99.90;;;;;;6278754;28;20049;-88
2023/12/01 08:37:23;;;;;;;27.05;11.50;;;0.90;99.90;;;;;;6278185;28;20111;-90
2023/12/01 08:40:25;;;;;;;29.40;12.18;;;0.90;99.90;;;;;;6278720;28;20052;-88
2023/12/01 08:43:29;;;;;;;29.92;11.98;;;0.90;99.90;;;;;;6288000;28;20045;-87
2023/12/01 08:46:33;;;;;;;30.17;12.25;;;1.00;99.90;;;;;;6277487;28;20049;-88
2023/12/01 08:49:35;;;;;;;27.35;10.75;;;1.00;99.90;;;;;;6286629;28;20068;-89
2023/12/01 08:52:37;;;;;;;24.33;10.02;;;1.10;99.90;;;;;;6297960;28;20117;-82
2023/12/01 08:55:38;;;;;;;25.73;11.20;;;1.10;99.90;;;;;;6275894;28;20049;-84
2023/12/01 08:58:40;;;;;;;20.00;9.68;;;1.20;99.90;;;;;;6289790;28;20049;-95
2023/12/01 09:01:42;;;;;;;24.02;9.88;;;1.20;99.90;;;;;;6311943;28;20055;-94
2023/12/01 09:04:44;;;;;;;20.20;8.40;;;1.10;99.90;;;;;;6279709;28;20053;-84
2023/12/01 09:07:48;;;;;;;18.92;8.23;;;1.20;99.90;;;;;;6301100;28;20052;-87
2023/12/01 09:10:50;;;;;;;22.02;9.13;;;1.20;99.90;;;;;;6273189;28;20045;-87
2023/12/01 09:13:51;;;;;;;18.10;8.60;;;1.20;99.90;;;;;;6281225;28;20049;-91
2023/12/01 09:16:53;;;;;;;21.65;8.75;;;1.10;99.90;;;;;;6280264;28;20078;-85
2023/12/01 09:19:55;;;;;;;22.10;8.85;;;1.10;99.90;;;;;;6290474;28;20045;-85
2023/12/01 09:22:57;;;;;;;21.95;9.13;;;1.10;99.90;;;;;;6284117;28;20747;-83
2023/12/01 09:25:59;;;;;;;19.33;8.90;;;1.10;99.90;;;;;;6299994;28;20040;-87
2023/12/01 09:29:00;;;;;;;20.20;9.35;;;1.20;99.90;;;;;;6279612;28;20057;-92
2023/12/01 09:32:02;;;;;;;18.52;8.57;;;1.20;99.90;;;;;;6278418;28;20122;-91
2023/12/01 09:35:04;;;;;;;21.48;9.52;;;1.20;99.90;;;;;;6291490;28;20438;-89
2023/12/01 09:38:06;;;;;;;20.30;8.93;;;1.20;99.90;;;;;;6277134;28;20072;-83
2023/12/01 09:41:07;;;;;;;21.45;9.13;;;1.20;99.90;;;;;;6299290;28;20128;-91
2023/12/01 09:44:09;;;;;;;18.52;8.20;;;1.20;99.90;;;;;;6287414;28;20476;-82
2023/12/01 09:47:17;;;;;;;21.25;9.20;;;1.20;99.90;;;;;;6270245;28;20504;-90
2023/12/01 09:50:18;;;;;;;19.75;9.55;;;1.20;99.90;;;;;;6300001;28;20110;-92
2023/12/01 09:53:22;;;;;;;21.40;9.07;;;1.30;99.90;;;;;;6274848;28;20053;-84
2023/12/01 09:56:24;;;;;;;19.92;8.60;;;1.30;99.90;;;;;;6297817;28;20060;-85
2023/12/01 09:59:26;;;;;;;19.60;9.38;;;1.30;99.90;;;;;;6273200;28;20041;-86
2023/12/01 10:02:27;;;;;;;19.08;9.70;;;1.40;99.90;;;;;;6264148;28;20409;-89
2023/12/01 10:05:35;;;;;;;20.23;8.95;;;1.40;99.90;;;;;;6287934;28;20048;-89
2023/12/01 10:08:37;;;;;;;20.70;8.65;;;1.50;99.90;;;;;;6298559;28;20060;-90
2023/12/01 10:11:39;;;;;;;19.02;8.38;;;1.50;99.90;;;;;;6273930;28;20049;-90
2023/12/01 10:14:43;;;;;;;21.98;9.38;;;1.60;99.90;;;;;;6286583;28;20139;-87
2023/12/01 10:17:45;;;;;;;18.77;8.70;;;1.70;99.90;;;;;;6275193;28;20143;-85
2023/12/01 10:20:47;;;;;;;18.27;8.57;;;1.70;99.90;;;;;;6274516;28;20059;-86
2023/12/01 10:23:50;;;;;;;18.30;8.68;;;1.80;99.90;;;;;;6274621;28;20064;-85
2023/12/01 10:26:51;;;;;;;17.25;8.52;;;1.80;99.90;;;;;;6296867;28;20147;-86
2023/12/01 10:29:53;;;;;;;18.65;8.35;;;2.00;99.90;;;;;;6266672;28;20049;-90
2023/12/01 10:32:55;;;;;;;17.77;8.73;;;2.00;99.90;;;;;;6276046;28;20049;-91
2023/12/01 10:35:56;;;;;;;17.63;8.32;;;2.00;99.90;;;;;;6273189;28;20073;-92
2023/12/01 10:38:59;;;;;;;18.88;9.02;;;2.00;99.90;;;;;;6279409;28;20064;-92
2023/12/01 10:42:00;;;;;;;19.45;9.10;;;2.00;99.90;;;;;;6290629;28;20057;-92
2023/12/01 10:45:06;;;;;;;19.08;8.18;;;2.00;99.90;;;;;;6252233;28;20048;-93
2023/12/01 10:48:08;;;;;;;21.02;8.82;;;2.10;99.90;;;;;;6297200;28;20491;-92
2023/12/01 10:51:10;;;;;;;19.90;9.23;;;2.10;99.90;;;;;;6284180;28;20135;-92
2023/12/01 10:54:12;;;;;;;19.65;9.63;;;2.10;99.90;;;;;;6280485;28;20053;-93
2023/12/01 10:57:14;;;;;;;17.63;9.27;;;2.10;99.90;;;;;;6278503;28;20128;-92
2023/12/01 11:00:31;;;;;;;20.10;9.27;;;2.20;99.90;;;;;;6277533;28;20413;-93
2023/12/01 11:03:34;;;;;;;18.88;9.63;;;2.30;99.90;;;;;;6276860;28;20060;-89
2023/12/01 11:06:36;;;;;;;20.45;9.38;;;2.30;99.90;;;;;;6298191;28;20048;-90
2023/12/01 11:09:37;;;;;;;20.83;10.25;;;2.30;99.90;;;;;;6284347;28;20052;-89
2023/12/01 11:12:39;;;;;;;17.67;9.07;;;2.30;99.90;;;;;;6276012;28;20040;-88
2023/12/01 11:15:41;;;;;;;21.45;9.88;;;2.30;99.90;;;;;;6270547;28;20106;-89
2023/12/01 11:18:45;;;;;;;18.15;9.18;;;2.30;99.90;;;;;;6299713;28;20052;-88
2023/12/01 11:21:47;;;;;;;22.60;9.93;;;2.40;99.90;;;;;;6307534;28;20086;-88
2023/12/01 11:24:49;;;;;;;18.23;9.25;;;2.40;99.90;;;;;;6302684;28;20057;-90
2023/12/01 11:27:50;;;;;;;22.00;10.23;;;2.50;99.90;;;;;;6310612;28;20041;-79
2023/12/01 11:30:52;;;;;;;19.70;9.38;;;2.50;99.90;;;;;;6294232;28;20057;-87
2023/12/01 11:33:54;;;;;;;19.67;9.35;;;2.40;99.90;;;;;;6270146;28;20429;-91
2023/12/01 11:37:06;;;;;;;22.05;9.88;;;2.50;99.90;;;;;;6293182;28;20064;-89
2023/12/01 11:40:08;;;;;;;19.80;9.30;;;2.50;99.90;;;;;;6304852;28;20049;-93
2023/12/01 11:43:13;;;;;;;19.98;9.50;;;2.50;99.90;;;;;;6289954;28;20468;-94
2023/12/01 11:46:22;;;;;;;20.83;9.05;;;2.50;99.90;;;;;;6257083;28;20090;-93
2023/12/01 11:49:25;;;;;;;18.27;9.27;;;2.50;99.90;;;;;;6281511;28;20123;-91
2023/12/01 11:52:27;;;;;;;23.10;10.90;;;2.50;99.90;;;;;;6282937;28;20521;-92
2023/12/01 11:55:29;;;;;;;20.30;9.52;;;2.70;99.90;;;;;;6305064;28;20536;-91
2023/12/01 11:58:31;;;;;;;22.60;9.57;;;2.70;99.90;;;;;;6294758;28;20511;-92
2023/12/01 12:01:33;;;;;;;21.70;10.20;;;2.70;99.90;;;;;;6275759;28;20048;-91
2023/12/01 12:04:37;;;;;;;18.77;9.88;;;2.80;99.90;;;;;;6295990;28;20041;-91
2023/12/01 12:07:41;;;;;;;23.30;9.90;;;2.90;99.90;;;;;;6305751;28;20048;-87
2023/12/01 12:10:44;;;;;;;17.50;9.18;;;3.10;99.90;;;;;;6286952;28;20060;-92
2023/12/01 12:13:45;;;;;;;18.25;8.95;;;3.20;99.90;;;;;;6295852;28;20072;-91
2023/12/01 12:16:47;;;;;;;16.17;8.60;;;3.20;99.90;;;;;;6282821;28;20041;-93
2023/12/01 12:19:51;;;;;;;21.80;10.07;;;3.20;99.90;;;;;;6309629;28;20045;-92
2023/12/01 12:23:03;;;;;;;21.23;9.63;;;3.20;99.90;;;;;;6270688;28;20063;-91
2023/12/01 12:26:04;;;;;;;20.20;9.65;;;3.10;99.90;;;;;;6311146;28;20057;-91
2023/12/01 12:29:06;;;;;;;20.30;10.40;;;3.00;99.90;;;;;;6287464;28;20060;-90
2023/12/01 12:32:08;;;;;;;18.88;10.20;;;3.00;99.90;;;;;;6295539;28;20056;-92
2023/12/01 12:35:09;;;;;;;21.02;10.45;;;3.10;99.90;;;;;;6287127;28;20049;-91
2023/12/01 12:38:11;;;;;;;22.02;9.90;;;3.10;99.90;;;;;;6264527;28;20131;-92
2023/12/01 12:41:13;;;;;;;21.00;9.95;;;3.20;99.90;;;;;;6309938;28;20048;-91
2023/12/01 12:44:14;;;;;;;20.33;9.75;;;3.50;99.90;;;;;;6299133;28;20040;-91
2023/12/01 12:47:16;;;;;;;21.05;10.07;;;3.60;99.90;;;;;;6291611;28;21093;-90
2023/12/01 12:50:18;;;;;;;20.00;9.75;;;3.80;99.90;;;;;;6290223;28;20063;-94
2023/12/01 12:53:19;;;;;;;21.33;9.98;;;3.70;99.90;;;;;;6313878;28;20064;-92
2023/12/01 12:56:21;;;;;;;18.60;10.07;;;3.60;99.90;;;;;;6290581;28;20131;-91
2023/12/01 12:59:23;;;;;;;20.48;9.73;;;3.60;99.90;;;;;;6300779;28;20060;-91
2023/12/01 13:02:25;;;;;;;17.15;8.63;;;3.90;99.90;;;;;;6307452;28;20102;-89
2023/12/01 13:05:27;;;;;;;16.17;8.10;;;4.70;99.90;;;;;;6283229;28;20072;-91
2023/12/01 13:08:29;;;;;;;19.00;9.02;;;5.10;99.90;;;;;;6291787;28;20542;-91
2023/12/01 13:11:33;;;;;;;17.13;8.52;;;4.90;99.90;;;;;;6291596;28;20492;-92
2023/12/01 13:14:34;;;;;;;18.50;9.23;;;5.10;99.90;;;;;;6304787;28;20064;-91
2023/12/01 13:17:36;;;;;;;17.27;8.18;;;5.40;99.50;;;;;;6301604;28;20060;-92
2023/12/01 13:20:38;;;;;;;12.82;7.32;;;5.70;97.90;;;;;;6278886;28;20052;-90
2023/12/01 13:23:40;;;;;;;14.50;7.72;;;5.90;96.10;;;;;;6291414;28;20063;-89
2023/12/01 13:26:42;;;;;;;13.30;6.75;;;6.30;94.30;;;;;;6304297;28;20518;-88
2023/12/01 13:29:44;;;;;;;11.13;5.18;;;6.30;85.70;;;;;;6274766;28;20512;-90
2023/12/01 13:32:45;;;;;;;11.60;5.72;;;6.00;62.90;;;;;;6301712;28;20055;-90
2023/12/01 13:35:47;;;;;;;17.27;5.40;;;5.80;38.40;;;;;;6278148;28;20072;-91
2023/12/01 13:38:50;;;;;;;11.93;5.05;;;5.60;38.80;;;;;;6301241;28;20106;-89
2023/12/01 13:41:52;;;;;;;14.98;6.78;;;5.20;46.90;;;;;;6276050;28;20045;-88
2023/12/01 13:44:54;;;;;;;14.23;7.45;;;4.80;59.70;;;;;;6295475;28;20156;-91
2023/12/01 13:47:55;;;;;;;13.43;7.68;;;4.50;66.50;;;;;;6276119;28;20049;-91
2023/12/01 13:50:57;;;;;;;15.05;7.93;;;4.40;64.60;;;;;;6280562;28;20059;-89
2023/12/01 13:53:59;;;;;;;16.15;8.57;;;4.20;72.00;;;;;;6280835;28;20102;-80
2023/12/01 13:57:01;;;;;;;17.63;8.70;;;4.10;78.50;;;;;;6295727;28;20059;-82
2023/12/01 14:00:03;;;;;;;17.73;9.02;;;3.90;72.50;;;;;;6283650;28;20229;-79
2023/12/01 14:03:06;;;;;;;19.48;9.15;;;3.80;83.40;;;;;;6262965;28;20049;-82
2023/12/01 14:06:20;;;;;;;18.35;9.10;;;3.70;85.00;;;;;;6267155;28;20056;-81
2023/12/01 14:09:22;;;;;;;16.73;8.55;;;3.60;84.20;;;;;;6269756;28;20087;-81
2023/12/01 14:12:24;;;;;;;16.02;8.30;;;3.50;84.10;;;;;;6261955;28;20140;-80
2023/12/01 14:15:26;;;;;;;16.20;8.63;;;3.40;85.20;;;;;;6288138;28;20385;-80
2023/12/01 14:18:27;;;;;;;16.42;8.40;;;3.40;87.70;;;;;;6294609;28;20171;-80
2023/12/01 14:21:29;;;;;;;20.13;8.40;;;3.40;84.20;;;;;;6290327;28;20067;-80
2023/12/01 14:24:31;;;;;;;18.58;9.25;;;3.30;89.80;;;;;;6276617;28;20053;-81
2023/12/01 14:27:32;;;;;;;19.05;9.10;;;3.30;90.30;;;;;;6288141;28;20045;-77
2023/12/01 14:30:34;;;;;;;20.65;9.25;;;3.20;91.60;;;;;;6269187;28;20071;-81
2023/12/01 14:33:36;;;;;;;20.30;9.73;;;3.10;92.70;;;;;;6244694;28;20057;-81
2023/12/01 14:36:38;;;;;;;16.20;9.07;;;3.10;93.80;;;;;;6268984;28;20132;-79
2023/12/01 14:39:40;;;;;;;21.35;9.48;;;3.10;94.90;;;;;;6252214;28;20053;-78
2023/12/01 14:42:41;;;;;;;20.27;9.38;;;3.00;94.60;;;;;;6270524;28;20090;-81
2023/12/01 14:45:43;;;;;;;19.85;9.70;;;3.00;94.60;;;;;;6293649;28;20048;-79
2023/12/01 14:48:45;;;;;;;20.35;9.32;;;2.90;94.60;;;;;;6268884;28;20091;-79
2023/12/01 14:51:47;;;;;;;22.45;9.50;;;2.90;95.30;;;;;;6264819;28;20055;-79
2023/12/01 14:54:48;;;;;;;21.50;9.23;;;2.90;95.70;;;;;;6277916;28;20098;-78
2023/12/01 14:57:50;;;;;;;19.55;9.20;;;2.90;96.90;;;;;;6269099;28;20055;-79
2023/12/01 15:00:52;;;;;;;19.08;9.73;;;2.70;97.40;;;;;;6280622;28;20135;-78
2023/12/01 15:03:55;;;;;;;20.85;9.57;;;2.70;99.50;;;;;;6280061;28;20405;-79
2023/12/01 15:06:57;;;;;;;20.65;9.30;;;2.70;99.90;;;;;;6268428;28;20432;-78
2023/12/01 15:09:58;;;;;;;23.20;9.82;;;2.60;99.90;;;;;;6265900;28;20127;-80
2023/12/01 15:13:00;;;;;;;19.25;8.80;;;2.60;99.90;;;;;;6272739;28;20060;-79
2023/12/01 15:16:02;;;;;;;22.45;8.50;;;2.50;99.90;;;;;;6288080;28;20056;-78
2023/12/01 15:19:04;;;;;;;14.15;7.28;;;2.60;99.90;;;;;;6268428;28;20055;-79
2023/12/01 15:22:06;;;;;;;16.63;7.88;;;2.60;99.90;;;;;;6271588;28;20068;-79
2023/12/01 15:25:08;;;;;;;17.17;8.00;;;2.50;99.70;;;;;;6267461;28;20118;-81
2023/12/01 15:28:11;;;;;;;14.07;7.03;;;2.50;99.90;;;;;;6273315;28;21020;-78
2023/12/01 15:31:12;;;;;;;15.65;7.47;;;2.50;99.90;;;;;;6270334;28;20053;-77
2023/12/01 15:34:14;;;;;;;16.17;7.38;;;2.40;99.90;;;;;;6268069;28;20060;-79
2023/12/01 15:37:16;;;;;;;15.43;7.22;;;2.30;99.90;;;;;;6292886;28;20411;-80
2023/12/01 15:40:17;;;;;;;15.23;7.10;;;2.30;99.90;;;;;;6270323;28;20060;-85